Time;durP1;ratioP1;P1;durP2;ratioP2;P2;SDS_P1;SDS_P2;PMS_P1;PMS_P2;Temp;Humidity;BMP_temperature;BMP_pressure;BME280_temperature;BME280_humidity;BME280_pressure;Samples;Min_cycle;Max_cycle;Signal;HPM_P1;HPM_P2
2022/05/18 00:00:15;;;;;;;9.05;3.75;;;;;;;16.48;100.00;101865.59;6245472;28;20132;-75
2022/05/18 00:03:19;;;;;;;4.65;3.53;;;;;;;16.45;100.00;101862.31;6245854;28;20409;-75
2022/05/18 00:06:21;;;;;;;4.82;3.05;;;;;;;16.44;100.00;101868.53;6245706;28;20417;-75
2022/05/18 00:09:23;;;;;;;6.22;3.97;;;;;;;16.41;100.00;101863.44;6249913;28;20053;-75
2022/05/18 00:12:25;;;;;;;6.35;3.88;;;;;;;16.37;100.00;101868.06;6250309;28;20053;-75
2022/05/18 00:15:29;;;;;;;6.65;3.97;;;;;;;16.39;100.00;101875.91;6249693;28;20053;-75
2022/05/18 00:18:31;;;;;;;6.97;4.15;;;;;;;16.40;100.00;101872.34;6250143;28;20052;-75
2022/05/18 00:21:32;;;;;;;8.68;4.35;;;;;;;16.38;100.00;101871.56;6249586;28;20428;-75
2022/05/18 00:24:35;;;;;;;6.05;3.88;;;;;;;16.34;100.00;101862.94;6249950;28;20061;-75
2022/05/18 00:27:36;;;;;;;8.63;4.20;;;;;;;16.35;100.00;101866.44;6249816;28;20060;-75
2022/05/18 00:30:39;;;;;;;12.00;4.28;;;;;;;16.36;100.00;101868.16;6249786;28;20057;-75
2022/05/18 00:33:41;;;;;;;7.43;4.22;;;;;;;16.36;100.00;101869.00;6248862;28;20172;-76
2022/05/18 00:36:42;;;;;;;5.88;3.90;;;;;;;16.36;100.00;101865.50;6249897;28;20045;-75
2022/05/18 00:39:45;;;;;;;7.38;3.90;;;;;;;16.37;100.00;101872.50;6249277;28;20055;-74
2022/05/18 00:42:46;;;;;;;8.77;4.18;;;;;;;16.34;100.00;101870.88;6224920;28;20049;-75
2022/05/18 00:45:48;;;;;;;5.97;3.67;;;;;;;16.36;100.00;101869.00;6224492;28;20057;-75
2022/05/18 00:48:50;;;;;;;6.97;4.70;;;;;;;16.36;100.00;101866.34;6224712;28;20050;-75
2022/05/18 00:51:55;;;;;;;6.88;4.15;;;;;;;16.36;100.00;101868.16;6224836;28;20061;-75
2022/05/18 00:55:01;;;;;;;6.65;4.13;;;;;;;16.34;100.00;101862.94;6224413;28;20065;-75
2022/05/18 00:58:08;;;;;;;9.10;4.75;;;;;;;16.34;100.00;101862.94;6236233;28;20132;-75
2022/05/18 01:01:10;;;;;;;6.75;4.38;;;;;;;16.34;100.00;101862.94;6248782;28;20091;-75
2022/05/18 01:04:14;;;;;;;5.65;3.85;;;;;;;16.33;100.00;101860.38;6249054;28;20412;-75
2022/05/18 01:07:19;;;;;;;8.10;5.15;;;;;;;16.36;100.00;101857.53;6248834;28;20049;-75
2022/05/18 01:10:22;;;;;;;7.53;4.85;;;;;;;16.34;100.00;101870.03;6248969;28;20052;-76
2022/05/18 01:13:23;;;;;;;11.00;4.72;;;;;;;16.31;100.00;101865.78;6248567;28;20053;-75
2022/05/18 01:16:26;;;;;;;6.72;3.88;;;;;;;16.31;100.00;101855.16;6248757;28;20053;-75
2022/05/18 01:19:34;;;;;;;9.70;5.30;;;;;;;16.33;100.00;101858.56;6247394;28;20049;-74
2022/05/18 01:22:45;;;;;;;7.25;5.13;;;;;;;16.37;100.00;101856.59;6248194;28;20067;-75
2022/05/18 01:26:02;;;;;;;8.57;4.72;;;;;;;16.40;100.00;101851.97;6236793;28;20436;-75
2022/05/18 01:29:05;;;;;;;7.35;4.35;;;;;;;16.39;100.00;101855.53;6245726;28;20520;-74
2022/05/18 01:32:12;;;;;;;5.70;3.53;;;;;;;16.39;100.00;101855.53;6243893;28;20527;-75
2022/05/18 01:35:16;;;;;;;8.85;4.45;;;;;;;16.38;100.00;101856.50;6248332;28;20516;-75
2022/05/18 01:38:18;;;;;;;5.78;4.18;;;;;;;16.38;100.00;101861.78;6242920;28;20512;-75
2022/05/18 01:41:22;;;;;;;8.10;4.50;;;;;;;16.37;100.00;101859.25;6245223;28;20053;-75
2022/05/18 01:44:26;;;;;;;7.95;3.70;;;;;;;16.37;100.00;101861.91;6247682;28;20054;-75
2022/05/18 01:47:33;;;;;;;8.93;4.80;;;;;;;16.35;100.00;101869.09;6247799;28;20096;-75
2022/05/18 01:50:35;;;;;;;7.97;5.07;;;;;;;16.34;100.00;101870.03;6247549;28;20476;-75
2022/05/18 01:53:37;;;;;;;10.98;4.60;;;;;;;16.34;100.00;101872.69;6247998;28;20053;-75
2022/05/18 01:56:39;;;;;;;10.20;5.53;;;;;;;16.33;100.00;101876.28;6247875;28;20076;-75
2022/05/18 01:59:42;;;;;;;9.02;5.07;;;;;;;16.31;100.00;101873.75;6247411;28;20041;-75
2022/05/18 02:02:43;;;;;;;7.35;4.30;;;;;;;16.33;100.00;101878.94;6247610;28;20049;-75
2022/05/18 02:05:46;;;;;;;7.38;4.85;;;;;;;16.33;100.00;101881.59;6247226;28;20143;-75
2022/05/18 02:08:47;;;;;;;6.85;4.55;;;;;;;16.32;100.00;101888.69;6247344;28;20076;-74
2022/05/18 02:11:51;;;;;;;9.02;5.30;;;;;;;16.31;100.00;101889.66;6246971;28;20048;-74
2022/05/18 02:14:53;;;;;;;9.50;4.88;;;;;;;16.28;100.00;101881.88;6246676;28;20050;-75
2022/05/18 02:17:55;;;;;;;8.82;5.47;;;;;;;16.26;100.00;101882.88;6247518;28;20053;-75
2022/05/18 02:20:56;;;;;;;10.40;6.15;;;;;;;16.26;100.00;101882.88;6247303;28;20041;-75
2022/05/18 02:23:58;;;;;;;11.15;6.07;;;;;;;16.24;100.00;101883.84;6246286;28;20057;-74
2022/05/18 02:26:59;;;;;;;8.88;5.43;;;;;;;16.25;100.00;101882.03;6247236;28;20053;-75
2022/05/18 02:30:02;;;;;;;9.00;5.82;;;;;;;16.27;100.00;101881.97;6247126;28;20045;-75
2022/05/18 02:33:04;;;;;;;12.75;6.00;;;;;;;16.29;100.00;101883.56;6246983;28;20049;-75
2022/05/18 02:36:07;;;;;;;11.15;5.75;;;;;;;16.28;100.00;101873.91;6245218;28;20417;-75
2022/05/18 02:39:09;;;;;;;8.23;4.82;;;;;;;16.28;100.00;101876.56;6246922;28;20088;-75
2022/05/18 02:42:10;;;;;;;9.18;5.28;;;;;;;16.28;100.00;101879.22;6246646;28;20052;-75
2022/05/18 02:45:14;;;;;;;7.82;5.15;;;;;;;16.24;100.00;101881.19;6246768;28;20049;-75
2022/05/18 02:48:15;;;;;;;9.35;5.25;;;;;;;16.17;100.00;101871.91;6246634;28;20037;-75
2022/05/18 02:51:17;;;;;;;11.15;5.30;;;;;;;16.15;100.00;101875.56;6247334;28;20594;-75
2022/05/18 02:57:43;;;;;;;14.10;6.43;;;;;;;16.10;100.00;101873.19;6190683;28;20132;-75
2022/05/18 03:00:45;;;;;;;11.23;6.45;;;;;;;16.12;100.00;101879.25;6246183;28;20045;-75
2022/05/18 03:03:47;;;;;;;13.70;5.57;;;;;;;16.12;100.00;101876.59;6246702;28;20045;-75
2022/05/18 03:06:49;;;;;;;10.35;6.05;;;;;;;16.12;100.00;101881.06;6244426;28;20053;-76
2022/05/18 03:09:50;;;;;;;7.85;5.18;;;;;;;16.08;100.00;101882.16;6246613;28;20516;-75
2022/05/18 03:12:52;;;;;;;11.07;6.00;;;;;;;16.08;100.00;101882.16;6242873;28;20046;-75
2022/05/18 03:15:54;;;;;;;7.10;5.07;;;;;;;16.07;100.00;101883.97;6221725;28;20050;-74
2022/05/18 03:18:56;;;;;;;10.52;5.65;;;;;;;16.06;100.00;101881.41;6228954;28;20050;-75
2022/05/18 03:25:18;;;;;;;13.07;6.78;;;;;;;16.08;100.00;101887.47;6240756;28;20081;-75
2022/05/18 03:28:19;;;;;;;10.20;6.03;;;;;;;16.08;100.00;101896.31;6245641;28;20041;-75
2022/05/18 03:31:23;;;;;;;11.40;5.50;;;;;;;16.07;100.00;101894.56;6246194;28;20050;-75
2022/05/18 03:34:24;;;;;;;10.27;5.95;;;;;;;16.08;100.00;101896.31;6239806;28;20049;-75
2022/05/18 03:37:26;;;;;;;10.15;5.50;;;;;;;16.10;100.00;101897.06;6244385;28;20049;-75
2022/05/18 03:40:27;;;;;;;9.90;5.43;;;;;;;16.09;100.00;101891.84;6245582;28;20052;-75
2022/05/18 03:43:28;;;;;;;7.20;4.70;;;;;;;16.12;100.00;101887.19;6249163;28;20060;-75
2022/05/18 03:46:31;;;;;;;13.07;6.00;;;;;;;16.12;100.00;101894.31;6250874;28;20138;-75
2022/05/18 03:49:33;;;;;;;9.93;5.43;;;;;;;16.10;100.00;101889.09;6250290;28;20046;-75
2022/05/18 03:52:34;;;;;;;13.02;5.60;;;;;;;16.10;100.00;101888.25;6250972;28;20045;-75
2022/05/18 03:55:37;;;;;;;9.30;5.63;;;;;;;16.10;100.00;101891.75;6250672;28;20052;-74
2022/05/18 03:58:40;;;;;;;12.45;5.20;;;;;;;16.08;100.00;101891.00;6251022;28;20054;-75
2022/05/18 04:01:43;;;;;;;9.75;5.53;;;;;;;16.08;100.00;101892.78;6250522;28;20052;-75
2022/05/18 04:04:45;;;;;;;11.57;5.32;;;;;;;16.06;100.00;101894.69;6250419;28;20053;-74
2022/05/18 04:07:46;;;;;;;8.55;4.53;;;;;;;16.02;100.00;101899.28;6250443;28;20049;-75
2022/05/18 04:10:48;;;;;;;8.10;5.30;;;;;;;16.03;100.00;101901.00;6249921;28;20049;-75
2022/05/18 04:13:50;;;;;;;8.93;5.55;;;;;;;16.03;100.00;101894.84;6250255;28;20052;-73
2022/05/18 04:16:53;;;;;;;8.70;5.25;;;;;;;16.02;100.00;101904.59;6250364;28;20050;-73
2022/05/18 04:19:55;;;;;;;9.55;5.10;;;;;;;16.02;100.00;101899.28;6249809;28;20049;-73
2022/05/18 04:22:56;;;;;;;11.82;5.90;;;;;;;16.03;100.00;101903.66;6250275;28;20045;-73
2022/05/18 04:25:58;;;;;;;7.35;4.43;;;;;;;16.02;100.00;101901.94;6249867;28;20060;-74
2022/05/18 04:28:59;;;;;;;8.55;5.35;;;;;;;16.01;100.00;101904.69;6250168;28;20488;-73
2022/05/18 04:32:02;;;;;;;9.85;6.13;;;;;;;16.00;100.00;101908.31;6249782;28;20046;-73
2022/05/18 04:35:03;;;;;;;8.85;5.70;;;;;;;15.98;100.00;101901.25;6249786;28;20050;-73
2022/05/18 04:38:05;;;;;;;11.38;5.15;;;;;;;15.98;100.00;101908.38;6249869;28;20061;-75
2022/05/18 04:41:06;;;;;;;9.90;5.13;;;;;;;15.98;100.00;101905.72;6248882;28;20121;-74
2022/05/18 04:44:08;;;;;;;9.25;5.60;;;;;;;16.00;100.00;101908.31;6249439;28;20060;-73
2022/05/18 04:47:10;;;;;;;9.25;5.60;;;;;;;16.02;100.00;101903.75;6249401;28;20045;-73
2022/05/18 04:50:12;;;;;;;9.68;4.93;;;;;;;16.03;100.00;101903.66;6249479;28;20052;-74
2022/05/18 04:53:15;;;;;;;9.25;5.35;;;;;;;16.04;100.00;101908.03;6248994;28;20076;-73
2022/05/18 04:56:16;;;;;;;9.93;5.30;;;;;;;16.07;100.00;101904.34;6249272;28;20136;-73
2022/05/18 04:59:17;;;;;;;8.25;4.55;;;;;;;16.10;100.00;101909.47;6249415;28;20064;-74
2022/05/18 05:02:20;;;;;;;7.40;4.68;;;;;;;16.12;100.00;101911.06;6249063;28;20045;-75
2022/05/18 05:05:21;;;;;;;8.48;4.80;;;;;;;16.16;100.00;101907.31;6248967;28;20057;-74
2022/05/18 05:08:23;;;;;;;7.55;4.90;;;;;;;16.23;100.00;101913.13;6249270;28;20052;-74
2022/05/18 05:11:24;;;;;;;6.60;4.53;;;;;;;16.24;100.00;101923.63;6248717;28;20500;-73
2022/05/18 05:14:25;;;;;;;7.88;5.07;;;;;;;16.26;100.00;101920.03;6248554;28;20056;-74
2022/05/18 05:17:28;;;;;;;10.15;5.20;;;;;;;16.26;100.00;101923.56;6248916;28;20425;-73
2022/05/18 05:20:29;;;;;;;8.23;4.75;;;;;;;16.29;100.00;101925.16;6248407;28;20045;-73
2022/05/18 05:23:32;;;;;;;8.13;4.68;;;;;;;16.33;100.00;101916.09;6248410;28;20512;-74
2022/05/18 05:26:33;;;;;;;8.73;4.90;;;;;;;16.34;100.00;101921.28;6232895;28;20049;-74
2022/05/18 05:29:34;;;;;;;5.40;3.90;;;;;;;16.38;100.00;101924.63;6239722;28;20049;-74
2022/05/18 05:32:37;;;;;;;9.45;4.78;;;;;;;16.39;100.00;101921.88;6248306;28;20050;-74
2022/05/18 05:35:40;;;;;;;8.35;4.25;;;;;;;16.42;100.00;101919.03;6248517;28;20057;-73
2022/05/18 05:38:42;;;;;;;8.95;4.07;;;;;;;16.46;100.00;101914.41;6240419;28;20073;-74
2022/05/18 05:41:43;;;;;;;5.85;3.90;;;;;;;16.49;100.00;101922.22;6247619;28;20046;-74
2022/05/18 05:44:44;;;;;;;7.57;4.72;;;;;;;16.59;100.00;101919.84;6248078;28;20132;-74
2022/05/18 05:47:47;;;;;;;6.80;4.28;;;;;;;16.68;100.00;101920.16;6247943;28;20053;-73
2022/05/18 05:50:48;;;;;;;8.45;4.50;;;;;;;16.73;100.00;101915.44;6248190;28;20054;-74
2022/05/18 05:53:52;;;;;;;4.43;3.70;;;;;;;16.81;100.00;101915.00;6246133;28;20507;-74
2022/05/18 05:56:53;;;;;;;6.53;3.72;;;;;;;16.90;100.00;101918.88;6241949;28;20056;-74
2022/05/18 05:59:54;;;;;;;7.53;4.47;;;;;;;16.98;100.00;101925.41;6247544;28;20404;-74
2022/05/18 06:02:57;;;;;;;7.47;4.28;;;;;;;17.04;100.00;101924.19;6247939;28;20053;-73
2022/05/18 06:05:58;;;;;;;6.40;3.85;;;;;;;17.09;100.00;101929.22;6246911;28;20250;-74
2022/05/18 06:09:00;;;;;;;10.20;3.90;;;;;;;17.13;100.00;101925.44;6248060;28;20076;-74
2022/05/18 06:12:01;;;;;;;8.23;3.80;;;;;;;17.17;100.00;101927.81;6247097;28;20045;-73
2022/05/18 06:15:04;;;;;;;6.72;3.92;;;;;;;17.25;100.00;101928.16;6247355;28;20052;-74
2022/05/18 06:18:07;;;;;;;6.90;4.43;;;;;;;17.32;100.00;101928.66;6247907;28;20056;-74
2022/05/18 06:21:08;;;;;;;7.43;3.78;;;;;;;17.43;100.00;101926.16;6246666;28;20053;-73
2022/05/18 06:24:10;;;;;;;4.72;3.40;;;;;;;17.52;100.00;101932.69;6247226;28;20049;-74
2022/05/18 06:27:11;;;;;;;5.30;3.53;;;;;;;17.62;100.00;101941.81;6247090;28;20057;-74
2022/05/18 06:30:15;;;;;;;6.25;3.42;;;;;;;17.67;100.00;101937.06;6247240;28;20057;-73
2022/05/18 06:33:17;;;;;;;6.55;3.90;;;;;;;17.72;100.00;101950.03;6247171;28;20057;-74
2022/05/18 06:36:19;;;;;;;8.05;3.22;;;;;;;17.74;100.00;101951.66;6247108;28;20049;-74
2022/05/18 06:39:20;;;;;;;6.75;3.53;;;;;;;17.82;100.00;101943.22;6246941;28;20519;-73
2022/05/18 06:42:22;;;;;;;5.60;3.60;;;;;;;17.92;100.00;101940.78;6246688;28;20053;-73
2022/05/18 06:45:23;;;;;;;4.28;3.25;;;;;;;18.04;100.00;101944.47;6246587;28;20056;-71
2022/05/18 06:48:26;;;;;;;5.10;3.70;;;;;;;18.18;100.00;101947.06;6247023;28;20060;-73
2022/05/18 06:51:30;;;;;;;8.30;3.97;;;;;;;18.26;100.00;101936.78;6246709;28;20046;-73
2022/05/18 06:54:31;;;;;;;5.03;2.97;;;;;;;18.30;100.00;101938.25;6246466;28;20485;-74
2022/05/18 06:57:33;;;;;;;5.07;3.17;;;;;;;18.35;100.00;101938.81;6246884;28;20053;-73
2022/05/18 07:00:34;;;;;;;5.60;3.60;;;;;;;18.43;100.00;101930.31;6245614;28;20041;-74
2022/05/18 07:03:37;;;;;;;4.93;3.10;;;;;;;18.46;100.00;101935.44;6246479;28;20056;-73
2022/05/18 07:06:43;;;;;;;4.32;2.55;;;;;;;18.49;100.00;101932.56;6246469;28;20508;-73
2022/05/18 07:09:44;;;;;;;3.58;2.92;;;;;;;18.55;100.00;101932.16;6246673;28;20126;-72
2022/05/18 07:12:46;;;;;;;6.00;2.85;;;;;;;18.64;100.00;101923.53;6246088;28;20052;-73
2022/05/18 07:15:47;;;;;;;5.13;3.05;;;;;;;18.66;100.00;101932.25;6246485;28;20052;-73
2022/05/18 07:18:50;;;;;;;3.88;2.90;;;;;;;18.67;100.00;101935.78;6250638;28;20651;-72
2022/05/18 07:21:51;;;;;;;6.25;3.63;;;;;;;18.64;100.00;101942.16;6251680;28;20059;-73
2022/05/18 07:24:53;;;;;;;8.80;3.15;;;;;;;18.68;100.00;101930.34;6250856;28;20057;-73
2022/05/18 07:27:54;;;;;;;5.35;2.65;;;;;;;18.80;100.00;101938.47;6251155;28;20521;-73
2022/05/18 07:30:56;;;;;;;3.58;2.75;;;;;;;18.91;100.00;101931.47;6245568;28;20057;-73
2022/05/18 07:33:59;;;;;;;5.60;2.83;;;;;;;18.97;100.00;101936.34;6244830;28;20053;-72
2022/05/18 07:37:00;;;;;;;3.60;2.53;;;;;;;18.96;100.00;101934.66;6247886;28;20045;-74
2022/05/18 07:40:01;;;;;;;6.05;2.97;;;;;;;19.01;100.00;101921.00;6245360;28;20045;-74
2022/05/18 07:43:03;;;;;;;4.05;2.67;;;;;;;19.07;100.00;101925.03;6248285;28;20037;-74
2022/05/18 07:46:06;;;;;;;5.25;3.55;;;;;;;19.12;100.00;101922.91;6250542;28;20065;-73
2022/05/18 07:49:09;;;;;;;5.68;3.38;;;;;;;19.19;100.00;101925.03;6250921;28;20055;-74
2022/05/18 07:52:10;;;;;;;3.20;2.60;;;;;;;19.31;100.00;101930.47;6250263;28;20041;-74
2022/05/18 07:55:12;;;;;;;6.80;2.15;;;;;;;19.41;100.00;101926.19;6250329;28;20460;-74
2022/05/18 07:58:16;;;;;;;5.88;2.95;;;;;;;19.39;100.00;101928.09;6250589;28;20049;-74
2022/05/18 08:01:17;;;;;;;4.95;2.30;;;;;;;19.43;100.00;101934.91;6250596;28;20057;-73
2022/05/18 08:04:20;;;;;;;3.75;2.15;;;;;;;19.51;100.00;101935.22;6250276;28;20504;-73
2022/05/18 08:07:22;;;;;;;4.35;2.35;;;;;;;19.62;100.00;101939.78;6250172;28;20049;-73
2022/05/18 08:17:01;;;;;;;2.22;1.88;;;;;;;20.07;100.00;101919.53;6244206;28;20140;-74
2022/05/18 08:20:09;;;;;;;4.57;1.80;;;;;;;20.04;100.00;101925.13;6232208;28;20398;-74
2022/05/18 08:23:11;;;;;;;5.15;2.05;;;;;;;20.00;100.00;101927.19;6250270;28;20056;-74
2022/05/18 08:26:12;;;;;;;4.00;2.10;;;;;;;20.00;100.00;101918.31;6227524;28;20050;-73
2022/05/18 08:29:14;;;;;;;3.95;2.13;;;;;;;20.01;100.00;101910.19;6235209;28;20041;-75
2022/05/18 08:32:15;;;;;;;4.75;2.33;;;;;;;20.11;100.00;101914.84;6242656;28;20510;-75
2022/05/18 08:35:18;;;;;;;2.97;2.17;;;;;;;20.25;100.00;101907.47;6246672;28;20053;-73
2022/05/18 08:38:20;;;;;;;2.33;1.98;;;;;;;20.33;100.00;101903.41;6237828;28;20046;-74
2022/05/18 08:41:23;;;;;;;2.00;1.75;;;;;;;20.51;100.00;101915.38;6249436;28;20041;-73
2022/05/18 08:44:28;;;;;;;2.30;1.63;;;;;;;20.70;100.00;101909.47;6248713;28;20497;-73
2022/05/18 08:47:40;;;;;;;3.50;2.28;;;;;;;20.75;100.00;101899.25;6249731;28;20244;-73
2022/05/18 08:50:44;;;;;;;3.00;1.90;;;;;;;20.76;100.00;101903.66;6249120;28;20122;-74
2022/05/18 08:53:53;;;;;;;3.72;2.22;;;;;;;20.81;100.00;101904.16;6249290;28;20508;-74
2022/05/18 08:56:58;;;;;;;5.03;1.92;;;;;;;20.91;100.00;101899.78;6240672;28;20053;-74
2022/05/18 09:00:08;;;;;;;2.78;1.83;;;;;;;20.96;100.00;101894.91;6246281;28;20060;-75
2022/05/18 09:03:16;;;;;;;3.85;1.98;;;;;;;21.03;100.00;101889.94;6248576;28;20050;-75
2022/05/18 09:06:29;;;;;;;2.97;1.88;;;;;;;21.11;100.00;101889.31;6249080;28;20046;-74
2022/05/18 09:13:11;;;;;;;1.80;1.60;;;;;;;21.38;99.32;101895.16;6197331;28;20052;-75
2022/05/18 09:16:21;;;;;;;3.30;1.80;;;;;;;21.42;100.00;101891.25;6196387;28;20054;-74
2022/05/18 09:19:32;;;;;;;6.57;1.45;;;;;;;21.62;99.17;101899.47;6247737;28;20497;-74
2022/05/18 09:22:52;;;;;;;2.13;1.42;;;;;;;21.70;96.54;101897.03;6248489;28;20058;-74
2022/05/18 09:26:08;;;;;;;3.47;1.73;;;;;;;21.81;98.24;101893.50;6243801;28;20049;-74
2022/05/18 09:29:19;;;;;;;2.85;1.83;;;;;;;21.84;97.59;101895.91;6248539;28;20049;-74
2022/05/18 09:32:36;;;;;;;4.53;1.60;;;;;;;22.01;90.46;101898.88;6248310;28;20520;-75
2022/05/18 09:35:51;;;;;;;2.25;1.25;;;;;;;22.07;90.38;101902.84;6247776;28;20394;-74
2022/05/18 09:39:02;;;;;;;2.33;1.60;;;;;;;22.31;88.08;101902.69;6230409;28;20057;-75
2022/05/18 09:42:07;;;;;;;1.70;1.30;;;;;;;22.42;88.41;101905.28;6240509;28;20042;-74
2022/05/18 09:45:12;;;;;;;2.15;1.45;;;;;;;22.44;86.30;101905.16;6243162;28;20056;-73
2022/05/18 09:48:15;;;;;;;1.35;1.25;;;;;;;22.46;90.06;101906.72;6248016;28;20056;-74
2022/05/18 09:51:17;;;;;;;2.85;1.50;;;;;;;22.61;89.47;101909.06;6247671;28;20050;-74
2022/05/18 09:54:20;;;;;;;3.58;1.27;;;;;;;22.88;83.08;101908.50;6248047;28;20061;-74
2022/05/18 09:57:25;;;;;;;4.00;1.40;;;;;;;22.91;79.05;101895.72;6247801;28;20049;-74
2022/05/18 10:00:29;;;;;;;1.30;1.20;;;;;;;22.97;80.55;101883.59;6247744;28;20432;-74
2022/05/18 10:07:31;;;;;;;2.17;1.20;;;;;;;23.00;83.63;101894.91;6247801;28;20100;-74
2022/05/18 10:10:36;;;;;;;2.33;1.73;;;;;;;23.16;84.70;101888.19;6247636;28;20053;-74
2022/05/18 10:13:43;;;;;;;1.90;1.20;;;;;;;23.31;83.17;101888.69;6247581;28;20045;-76
2022/05/18 10:16:47;;;;;;;2.60;1.30;;;;;;;23.44;80.42;101881.25;6247280;28;20053;-75
2022/05/18 10:19:58;;;;;;;1.85;1.23;;;;;;;23.44;79.68;101878.56;6247088;28;20060;-75
2022/05/18 10:23:01;;;;;;;1.33;1.08;;;;;;;23.46;80.50;101882.78;6242305;28;20048;-76
2022/05/18 10:26:03;;;;;;;3.55;1.30;;;;;;;23.48;78.60;101882.63;6247322;28;20045;-76
2022/05/18 10:29:07;;;;;;;3.08;1.60;;;;;;;23.66;77.70;101881.00;6247194;28;20068;-76
2022/05/18 10:32:10;;;;;;;2.15;1.25;;;;;;;23.74;75.18;101891.03;6244880;28;20045;-76
2022/05/18 10:35:13;;;;;;;1.92;1.25;;;;;;;23.85;77.21;101887.41;6246645;28;20045;-75
2022/05/18 10:38:22;;;;;;;3.95;1.42;;;;;;;23.94;76.74;101882.03;6246889;28;20048;-74
2022/05/18 10:41:27;;;;;;;1.45;1.10;;;;;;;24.07;72.71;101879.03;6246699;28;20046;-76
2022/05/18 10:44:34;;;;;;;2.28;1.25;;;;;;;24.15;75.50;101881.03;6246705;28;20053;-73
2022/05/18 10:47:38;;;;;;;6.13;1.30;;;;;;;24.51;72.43;101880.28;6246983;28;20481;-74
2022/05/18 10:50:42;;;;;;;2.25;1.10;;;;;;;24.67;69.21;101876.16;6246524;28;20418;-74
2022/05/18 10:53:46;;;;;;;1.67;1.30;;;;;;;24.80;69.86;101874.00;6246395;28;20441;-73
2022/05/18 10:56:48;;;;;;;2.25;1.50;;;;;;;24.82;69.98;101865.78;6246781;28;20077;-75
2022/05/18 10:59:56;;;;;;;1.08;0.95;;;;;;;24.99;73.10;101870.38;6240104;28;20053;-75
2022/05/18 11:03:07;;;;;;;2.38;1.10;;;;;;;25.14;74.90;101871.59;6229299;28;20053;-75
2022/05/18 11:06:15;;;;;;;2.15;1.30;;;;;;;25.29;70.82;101861.16;6246315;28;20053;-75
2022/05/18 11:09:20;;;;;;;3.92;1.73;;;;;;;25.51;72.03;101855.34;6229324;28;20057;-74
2022/05/18 11:12:35;;;;;;;1.20;1.10;;;;;;;25.89;66.43;101864.19;6221832;28;20052;-75
2022/05/18 11:15:44;;;;;;;1.83;1.00;;;;;;;26.12;64.76;101848.38;6236120;28;20050;-76
2022/05/18 11:18:53;;;;;;;2.92;1.17;;;;;;;26.34;63.97;101843.47;6221803;28;20053;-75
2022/05/18 11:22:11;;;;;;;3.65;1.23;;;;;;;26.71;65.40;101835.97;6222051;28;20390;-76
2022/05/18 11:25:23;;;;;;;2.03;1.45;;;;;;;26.92;61.88;101842.81;6239181;28;20393;-76
2022/05/18 11:28:35;;;;;;;2.85;1.35;;;;;;;26.84;60.49;101834.66;6244496;28;20052;-74
2022/05/18 11:31:59;;;;;;;1.27;1.10;;;;;;;27.11;63.69;101841.72;6245838;28;20611;-71
2022/05/18 11:35:13;;;;;;;1.77;1.25;;;;;;;27.56;59.32;101841.34;6240020;28;20041;-74
2022/05/18 11:38:35;;;;;;;2.03;1.20;;;;;;;27.91;58.37;101836.66;6244508;28;20045;-73
2022/05/18 11:41:57;;;;;;;3.50;1.45;;;;;;;28.19;57.00;101832.59;6243102;28;20053;-74
2022/05/18 11:45:09;;;;;;;1.80;1.10;;;;;;;28.11;54.89;101829.88;6235615;28;20049;-73
2022/05/18 11:48:24;;;;;;;1.20;1.08;;;;;;;28.24;57.17;101818.56;6246053;28;20050;-74
2022/05/18 11:51:37;;;;;;;1.90;0.98;;;;;;;28.56;54.66;101829.31;6246041;28;20532;-72
2022/05/18 11:55:03;;;;;;;1.65;1.30;;;;;;;28.89;53.93;101833.78;6245786;28;20057;-72
2022/05/18 11:58:15;;;;;;;1.45;1.10;;;;;;;29.35;54.72;101828.50;6246030;28;20053;-70
2022/05/18 12:01:27;;;;;;;6.80;1.27;;;;;;;29.44;53.35;101825.56;6246066;28;20052;-70
2022/05/18 12:04:59;;;;;;;1.48;1.05;;;;;;;28.80;54.55;101817.59;6249868;28;20045;-71
2022/05/18 12:08:27;;;;;;;1.80;0.95;;;;;;;28.00;56.66;101825.69;6250582;28;20053;-70
2022/05/18 12:11:42;;;;;;;2.35;1.42;;;;;;;27.79;58.09;101815.38;6250591;28;20139;-73
2022/05/18 12:14:55;;;;;;;2.05;0.90;;;;;;;28.39;59.85;101814.19;6249097;28;20049;-70
2022/05/18 12:18:02;;;;;;;1.38;1.02;;;;;;;28.97;55.47;101822.94;6250513;28;20045;-70
2022/05/18 12:21:08;;;;;;;2.65;1.02;;;;;;;29.12;50.69;101813.06;6246587;28;20053;-70
2022/05/18 12:24:13;;;;;;;1.70;1.10;;;;;;;29.21;51.17;101814.72;6246206;28;20045;-73
2022/05/18 12:27:19;;;;;;;1.90;1.15;;;;;;;28.47;52.27;101822.25;6249930;28;20076;-69
2022/05/18 12:30:22;;;;;;;4.28;1.38;;;;;;;28.49;51.08;101817.53;6249761;28;20049;-73
2022/05/18 12:33:25;;;;;;;1.67;0.98;;;;;;;28.63;49.19;101815.97;6247276;28;20049;-70
2022/05/18 12:36:34;;;;;;;2.05;0.90;;;;;;;28.92;51.00;101814.50;6249449;28;20063;-70
2022/05/18 12:39:45;;;;;;;2.55;1.77;;;;;;;29.40;49.14;101824.25;6249655;28;20535;-69
2022/05/18 12:42:57;;;;;;;4.07;0.68;;;;;;;28.86;47.83;101821.44;6249721;28;20053;-69
2022/05/18 12:46:02;;;;;;;1.10;1.00;;;;;;;28.17;50.15;101821.13;6249120;28;20057;-69
2022/05/18 12:49:08;;;;;;;2.00;1.02;;;;;;;28.56;52.34;101821.22;6249445;28;20056;-70
2022/05/18 12:52:16;;;;;;;1.45;0.88;;;;;;;29.34;45.85;101827.66;6248991;28;20050;-69
2022/05/18 12:55:24;;;;;;;1.48;0.80;;;;;;;29.85;39.34;101819.03;6249230;28;20046;-71
2022/05/18 12:58:31;;;;;;;1.65;1.17;;;;;;;30.02;39.48;101817.84;6249351;28;20421;-71
2022/05/18 13:01:37;;;;;;;1.10;1.00;;;;;;;30.06;42.45;101811.84;6249190;28;20056;-71
2022/05/18 13:04:45;;;;;;;2.25;1.00;;;;;;;30.14;38.07;101813.69;6249112;28;20512;-71
2022/05/18 13:07:47;;;;;;;0.60;0.60;;;;;;;30.09;38.60;101802.53;6249436;28;20060;-72
2022/05/18 13:11:11;;;;;;;1.85;0.90;;;;;;;30.20;39.54;101812.94;6249043;28;20050;-71
2022/05/18 13:14:30;;;;;;;1.00;0.80;;;;;;;30.23;36.42;101811.75;6246703;28;20046;-71
2022/05/18 13:17:50;;;;;;;0.63;0.63;;;;;;;30.36;34.59;101806.53;6247556;28;20056;-71
2022/05/18 13:20:56;;;;;;;2.08;0.70;;;;;;;30.64;37.47;101801.28;6242257;28;20072;-71
2022/05/18 13:24:05;;;;;;;0.73;0.60;;;;;;;31.06;36.78;101795.13;6248379;28;20041;-73
2022/05/18 13:27:11;;;;;;;0.82;0.70;;;;;;;31.13;35.02;101791.66;6248955;28;20432;-72
2022/05/18 13:30:21;;;;;;;0.75;0.75;;;;;;;31.22;35.45;101794.06;6248367;28;20056;-71
2022/05/18 13:33:24;;;;;;;0.82;0.82;;;;;;;31.24;35.98;101794.72;6248755;28;20056;-74
2022/05/18 13:36:37;;;;;;;2.33;0.60;;;;;;;31.14;34.52;101793.34;6248418;28;20493;-74
2022/05/18 13:39:41;;;;;;;1.58;0.77;;;;;;;30.87;34.37;101786.75;6248652;28;20049;-73
2022/05/18 13:42:43;;;;;;;1.33;0.80;;;;;;;30.61;33.66;101785.34;6248097;28;20053;-72
2022/05/18 13:45:51;;;;;;;1.15;0.70;;;;;;;30.73;32.31;101785.75;6247157;28;20049;-74
2022/05/18 13:48:59;;;;;;;1.45;0.68;;;;;;;30.41;33.49;101785.09;6248410;28;20270;-74
2022/05/18 13:52:08;;;;;;;1.05;0.70;;;;;;;29.64;34.03;101782.59;6247881;28;20398;-72
2022/05/18 13:55:10;;;;;;;;;;;;;;;29.22;35.76;101783.91;6248182;28;20053;-74
2022/05/18 13:58:16;;;;;;;1.17;0.70;;;;;;;29.22;35.62;101786.59;6248027;28;19920;-74
2022/05/18 14:01:22;;;;;;;2.10;0.80;;;;;;;29.76;36.87;101772.19;6247694;28;20460;-73
2022/05/18 14:04:28;;;;;;;2.45;1.02;;;;;;;30.57;35.30;101773.22;6246980;28;20054;-74
2022/05/18 14:07:32;;;;;;;1.20;0.90;;;;;;;30.94;34.28;101766.81;6247896;28;20057;-74
2022/05/18 14:10:33;;;;;;;0.80;0.65;;;;;;;30.93;35.00;101769.72;6247736;28;20053;-74
2022/05/18 14:13:36;;;;;;;1.45;0.70;;;;;;;31.20;35.71;101771.69;6246105;28;20060;-74
2022/05/18 14:16:43;;;;;;;1.73;0.60;;;;;;;31.02;34.61;101769.41;6247419;28;20517;-74
2022/05/18 14:19:50;;;;;;;0.68;0.65;;;;;;;30.35;35.99;101764.16;6239792;28;20493;-74
2022/05/18 14:22:55;;;;;;;0.75;0.73;;;;;;;29.55;37.78;101773.69;6247247;28;20042;-74
2022/05/18 14:26:02;;;;;;;2.97;0.75;;;;;;;29.10;36.46;101766.38;6246690;28;20053;-74
2022/05/18 14:29:07;;;;;;;3.30;1.23;;;;;;;28.77;39.04;101760.28;6247400;28;20057;-72
2022/05/18 14:32:14;;;;;;;1.50;0.98;;;;;;;28.56;39.89;101763.56;6246980;28;20045;-74